Time;durP1;ratioP1;P1;durP2;ratioP2;P2;SDS_P1;SDS_P2;PMS_P1;PMS_P2;Temp;Humidity;BMP_temperature;BMP_pressure;BME280_temperature;BME280_humidity;BME280_pressure;Samples;Min_cycle;Max_cycle;Signal;HPM_P1;HPM_P2
2022/03/07 00:00:34;;;;;;;2.00;1.40;;;16.90;36.10;;;;;;5122435;27;45223;-79
2022/03/07 00:03:02;;;;;;;2.40;1.55;;;16.90;36.20;;;;;;5118614;27;45949;-79
2022/03/07 00:05:29;;;;;;;2.78;1.65;;;16.90;36.30;;;;;;5119483;27;45674;-78
2022/03/07 00:07:56;;;;;;;3.45;1.50;;;16.90;36.20;;;;;;5130602;27;45574;-78
2022/03/07 00:10:23;;;;;;;1.92;1.40;;;16.90;36.30;;;;;;5126551;27;47951;-79
2022/03/07 00:12:49;;;;;;;2.33;1.63;;;16.90;37.50;;;;;;5129868;27;45212;-79
2022/03/07 00:15:17;;;;;;;3.63;1.58;;;16.80;36.40;;;;;;5130196;27;45185;-79
2022/03/07 00:17:44;;;;;;;2.08;1.30;;;16.80;36.50;;;;;;5128635;27;45530;-78
2022/03/07 00:20:13;;;;;;;1.60;1.20;;;16.80;36.40;;;;;;5128644;27;46444;-78
2022/03/07 00:22:40;;;;;;;2.05;1.30;;;16.80;36.50;;;;;;5125376;27;45220;-78
2022/03/07 00:25:08;;;;;;;2.13;1.50;;;16.80;36.70;;;;;;5129572;27;45260;-79
2022/03/07 00:27:35;;;;;;;4.90;1.60;;;16.80;36.60;;;;;;5128981;27;45203;-79
2022/03/07 00:30:02;;;;;;;2.17;1.48;;;16.80;36.40;;;;;;5125103;27;47127;-79
2022/03/07 00:32:30;;;;;;;2.72;1.50;;;16.80;36.20;;;;;;5129760;27;45175;-78
2022/03/07 00:34:57;;;;;;;2.97;1.48;;;16.80;36.10;;;;;;5129415;27;45264;-79
2022/03/07 00:37:25;;;;;;;3.30;1.50;;;16.80;36.10;;;;;;5129270;27;45241;-79
2022/03/07 00:39:52;;;;;;;2.55;1.42;;;16.80;36.10;;;;;;5123406;27;45489;-79
2022/03/07 00:42:19;;;;;;;1.73;1.20;;;16.90;36.10;;;;;;5125306;27;45294;-79
2022/03/07 00:44:46;;;;;;;2.72;1.65;;;16.90;36.10;;;;;;5123882;27;45260;-78
2022/03/07 00:47:14;;;;;;;2.50;1.50;;;16.90;36.00;;;;;;5128596;27;45641;-79
2022/03/07 00:49:41;;;;;;;2.25;1.30;;;16.80;35.80;;;;;;5122719;27;46428;-78
2022/03/07 00:52:08;;;;;;;1.60;1.30;;;16.80;35.80;;;;;;5124721;27;45665;-79
2022/03/07 00:54:37;;;;;;;2.05;1.80;;;16.80;36.80;;;;;;5120511;27;45521;-79
2022/03/07 00:57:04;;;;;;;2.97;1.67;;;16.80;35.80;;;;;;5102882;27;45484;-79
2022/03/07 00:59:32;;;;;;;2.13;1.55;;;16.80;36.00;;;;;;5122212;27;46221;-78
2022/03/07 01:01:59;;;;;;;2.67;1.65;;;16.80;36.20;;;;;;5127732;27;46081;-79
2022/03/07 01:04:27;;;;;;;1.77;1.42;;;16.70;35.80;;;;;;5126518;27;45538;-79
2022/03/07 01:06:54;;;;;;;2.47;1.60;;;16.80;35.90;;;;;;5119184;27;45237;-78
2022/03/07 01:09:21;;;;;;;4.05;1.52;;;16.70;35.90;;;;;;5125465;27;45241;-79
2022/03/07 01:11:50;;;;;;;2.80;1.48;;;16.70;36.00;;;;;;5126875;27;46327;-78
2022/03/07 01:14:17;;;;;;;2.40;1.67;;;16.70;36.20;;;;;;5129642;27;45214;-79
2022/03/07 01:16:44;;;;;;;2.50;1.67;;;16.80;35.90;;;;;;5127261;27;45205;-79
2022/03/07 01:19:11;;;;;;;2.72;1.60;;;16.80;36.00;;;;;;5142213;27;47025;-78
2022/03/07 01:21:40;;;;;;;2.33;1.58;;;16.80;36.00;;;;;;5126701;27;45262;-78
2022/03/07 01:24:09;;;;;;;2.20;1.60;;;16.80;36.10;;;;;;5129688;27;45304;-78
2022/03/07 01:26:37;;;;;;;2.80;1.73;;;16.80;35.90;;;;;;5128962;27;45209;-79
2022/03/07 01:29:05;;;;;;;1.98;1.50;;;16.80;35.70;;;;;;5127812;27;46443;-79
2022/03/07 01:31:32;;;;;;;2.63;1.50;;;16.80;35.90;;;;;;5128479;27;45093;-79
2022/03/07 01:33:59;;;;;;;2.03;1.52;;;16.80;35.80;;;;;;5128979;27;45156;-79
2022/03/07 01:36:26;;;;;;;2.60;1.50;;;16.80;36.00;;;;;;5108332;27;45246;-78
2022/03/07 01:38:53;;;;;;;3.15;1.88;;;16.80;36.10;;;;;;5108517;27;45222;-79
2022/03/07 01:41:19;;;;;;;2.72;1.70;;;16.70;36.10;;;;;;5110798;27;45401;-78
2022/03/07 01:43:46;;;;;;;2.53;1.73;;;16.70;35.90;;;;;;5126333;27;45176;-79
2022/03/07 01:46:14;;;;;;;1.73;1.40;;;16.70;35.80;;;;;;5129208;27;45561;-78
2022/03/07 01:48:41;;;;;;;1.95;1.48;;;16.70;35.70;;;;;;5115419;27;46339;-78
2022/03/07 01:51:10;;;;;;;4.75;2.08;;;16.70;35.60;;;;;;5125519;27;45282;-78
2022/03/07 01:53:39;;;;;;;2.13;1.73;;;16.70;35.50;;;;;;5125916;27;45473;-78
2022/03/07 01:56:06;;;;;;;3.10;1.70;;;16.70;35.70;;;;;;5108222;27;45572;-79
2022/03/07 01:58:33;;;;;;;2.42;1.63;;;16.70;35.70;;;;;;5119975;27;46245;-79
2022/03/07 02:01:00;;;;;;;3.10;1.88;;;16.80;35.80;;;;;;5114158;27;45399;-79
2022/03/07 02:03:29;;;;;;;2.13;1.70;;;16.80;35.50;;;;;;5114871;27;45392;-79
2022/03/07 02:05:56;;;;;;;2.03;1.40;;;16.80;36.00;;;;;;5126388;27;45435;-79
2022/03/07 02:08:23;;;;;;;3.13;1.23;;;16.80;35.80;;;;;;5116766;27;46127;-78
2022/03/07 02:10:50;;;;;;;1.75;1.50;;;16.80;35.90;;;;;;5124967;27;45967;-79
2022/03/07 02:13:18;;;;;;;2.47;1.63;;;16.80;35.50;;;;;;5107383;27;45269;-79
2022/03/07 02:15:52;;;;;;;1.73;1.50;;;16.80;35.70;;;;;;5108221;27;45345;-79
2022/03/07 02:18:21;;;;;;;5.18;1.63;;;16.80;35.70;;;;;;5107522;27;45669;-79
2022/03/07 02:20:52;;;;;;;3.47;1.70;;;16.70;35.50;;;;;;5107717;27;45219;-79
2022/03/07 02:23:20;;;;;;;2.30;1.60;;;16.70;35.30;;;;;;5110762;27;45185;-79
2022/03/07 02:25:47;;;;;;;1.90;1.40;;;16.70;35.70;;;;;;5132248;27;45242;-78
2022/03/07 02:28:14;;;;;;;2.78;1.48;;;16.70;35.70;;;;;;5135398;27;45632;-78
2022/03/07 02:30:41;;;;;;;2.47;1.50;;;16.70;35.60;;;;;;5128017;27;45392;-79
2022/03/07 02:33:12;;;;;;;2.58;1.52;;;16.70;35.70;;;;;;5121912;27;45259;-79
2022/03/07 02:35:39;;;;;;;2.15;1.40;;;16.70;35.60;;;;;;5110583;27;45198;-79
2022/03/07 02:38:13;;;;;;;2.10;1.55;;;16.70;35.60;;;;;;5122016;27;47825;-78
2022/03/07 02:40:41;;;;;;;2.08;1.30;;;16.70;35.60;;;;;;5113452;27;45580;-78
2022/03/07 02:43:08;;;;;;;2.35;1.55;;;16.70;35.60;;;;;;5127119;27;45142;-78
2022/03/07 02:45:35;;;;;;;1.88;1.40;;;16.80;35.90;;;;;;5127814;27;45136;-78
2022/03/07 02:48:02;;;;;;;2.00;1.40;;;16.80;36.00;;;;;;5124109;27;45255;-79
2022/03/07 02:50:28;;;;;;;2.33;1.73;;;16.80;35.90;;;;;;5126944;27;45171;-78
2022/03/07 02:52:56;;;;;;;2.40;1.38;;;16.80;36.10;;;;;;5120010;27;45450;-78
2022/03/07 02:55:23;;;;;;;1.95;1.60;;;16.80;35.80;;;;;;5108911;27;45571;-78
2022/03/07 02:57:51;;;;;;;2.45;1.90;;;16.80;35.40;;;;;;5115925;27;46148;-78
2022/03/07 03:00:18;;;;;;;3.20;1.95;;;16.80;35.60;;;;;;5129498;27;45563;-78
2022/03/07 03:02:45;;;;;;;3.15;2.10;;;16.80;35.00;;;;;;5126697;27;45468;-78
2022/03/07 03:05:13;;;;;;;2.28;1.63;;;16.70;35.00;;;;;;5114682;27;45495;-79
2022/03/07 03:07:40;;;;;;;2.25;1.70;;;16.70;35.00;;;;;;5119702;27;46484;-78
2022/03/07 03:10:08;;;;;;;2.85;2.20;;;16.70;35.50;;;;;;5130009;27;45241;-78
2022/03/07 03:12:35;;;;;;;2.83;1.92;;;16.70;35.20;;;;;;5131428;27;45163;-79
2022/03/07 03:15:03;;;;;;;3.40;2.10;;;16.70;35.30;;;;;;5130311;27;45514;-78
2022/03/07 03:17:30;;;;;;;2.65;1.70;;;16.70;35.20;;;;;;5129871;27;45193;-79
2022/03/07 03:19:57;;;;;;;2.72;1.70;;;16.70;35.30;;;;;;5130030;27;45311;-79
2022/03/07 03:22:24;;;;;;;3.15;1.80;;;16.70;35.50;;;;;;5129041;27;45280;-78
2022/03/07 03:24:51;;;;;;;2.95;1.92;;;16.70;35.20;;;;;;5130425;27;45272;-79
2022/03/07 03:27:17;;;;;;;2.97;1.65;;;16.70;35.50;;;;;;5130354;27;45442;-78
2022/03/07 03:29:44;;;;;;;3.25;1.75;;;16.70;35.60;;;;;;5131487;27;45273;-79
2022/03/07 03:32:13;;;;;;;3.00;2.00;;;16.70;35.70;;;;;;5122908;27;45532;-78
2022/03/07 03:34:39;;;;;;;2.25;1.73;;;16.80;35.50;;;;;;5109071;27;45647;-79
2022/03/07 03:37:06;;;;;;;3.30;1.80;;;16.80;35.70;;;;;;5118016;27;47067;-79
2022/03/07 03:39:33;;;;;;;4.28;1.70;;;16.80;35.90;;;;;;5141238;27;45517;-79
2022/03/07 03:42:00;;;;;;;2.75;1.70;;;16.80;35.40;;;;;;5115642;27;45561;-78
2022/03/07 03:44:26;;;;;;;2.20;1.70;;;16.70;35.30;;;;;;5110358;27;45272;-78
2022/03/07 03:46:53;;;;;;;3.35;1.90;;;16.70;35.00;;;;;;5109467;27;45315;-79
2022/03/07 03:49:22;;;;;;;2.92;1.67;;;16.70;35.20;;;;;;5127610;27;45528;-78
2022/03/07 03:51:49;;;;;;;3.78;1.55;;;16.70;35.10;;;;;;5129957;27;45277;-79
2022/03/07 03:54:16;;;;;;;2.10;1.52;;;16.70;35.10;;;;;;5108927;27;45310;-78
2022/03/07 03:56:42;;;;;;;1.92;1.40;;;16.70;35.20;;;;;;5107770;27;46342;-78
2022/03/07 03:59:11;;;;;;;2.67;1.77;;;16.70;36.70;;;;;;5126822;27;45248;-78
2022/03/07 04:01:38;;;;;;;2.42;1.60;;;16.60;35.20;;;;;;5129225;27;45257;-79
2022/03/07 04:04:05;;;;;;;2.55;1.50;;;16.70;35.10;;;;;;5127655;27;45372;-78
2022/03/07 04:06:33;;;;;;;2.85;1.80;;;16.70;35.10;;;;;;5128606;27;46277;-79
2022/03/07 04:09:00;;;;;;;3.00;1.50;;;16.70;35.60;;;;;;5129410;27;45547;-78
2022/03/07 04:11:27;;;;;;;2.72;1.85;;;16.70;35.30;;;;;;5119593;27;45238;-78
2022/03/07 04:13:54;;;;;;;2.67;1.70;;;16.70;34.20;;;;;;5110246;27;45276;-78
2022/03/07 04:16:20;;;;;;;2.33;1.75;;;16.70;34.40;;;;;;5108088;27;45278;-79
2022/03/07 04:18:47;;;;;;;2.63;1.67;;;16.70;34.40;;;;;;5116604;27;45282;-78
2022/03/07 04:21:15;;;;;;;3.03;1.92;;;16.70;33.90;;;;;;5130429;27;45212;-77
2022/03/07 04:23:43;;;;;;;3.67;2.20;;;16.70;33.50;;;;;;5129357;27;45491;-78
2022/03/07 04:26:10;;;;;;;2.50;1.80;;;16.70;33.20;;;;;;5118275;27;45479;-78
2022/03/07 04:28:37;;;;;;;2.80;1.90;;;16.70;33.00;;;;;;5122620;27;45194;-78
2022/03/07 04:31:04;;;;;;;2.28;1.75;;;16.60;32.90;;;;;;5123990;27;45238;-79
2022/03/07 04:33:30;;;;;;;3.65;2.28;;;16.60;33.10;;;;;;5108903;27;45245;-78
2022/03/07 04:35:57;;;;;;;3.83;2.13;;;16.60;33.00;;;;;;5109510;27;47504;-78
2022/03/07 04:38:26;;;;;;;3.72;2.40;;;16.60;32.90;;;;;;5108735;27;45214;-78
2022/03/07 04:40:54;;;;;;;3.28;2.15;;;16.60;33.00;;;;;;5121430;27;45220;-78
2022/03/07 04:43:22;;;;;;;3.17;2.40;;;16.60;35.20;;;;;;5116878;27;45243;-78
2022/03/07 04:45:50;;;;;;;3.03;2.10;;;16.60;34.40;;;;;;5113304;27;45331;-77
2022/03/07 04:48:16;;;;;;;3.30;2.30;;;16.60;34.10;;;;;;5132995;27;45215;-78
2022/03/07 04:50:43;;;;;;;3.22;2.40;;;16.60;33.90;;;;;;5107520;27;45365;-78
2022/03/07 04:53:10;;;;;;;3.50;2.38;;;16.60;33.60;;;;;;5108811;27;45190;-78
2022/03/07 04:55:37;;;;;;;3.38;2.40;;;16.60;33.70;;;;;;5118368;27;45210;-78
2022/03/07 04:58:06;;;;;;;3.30;2.13;;;16.60;33.30;;;;;;5127433;27;45217;-78
2022/03/07 05:00:33;;;;;;;2.88;2.33;;;16.60;33.50;;;;;;5113915;27;45379;-78
2022/03/07 05:02:59;;;;;;;3.72;2.30;;;16.60;33.30;;;;;;5126281;27;45221;-78
2022/03/07 05:05:26;;;;;;;3.33;2.42;;;16.60;33.60;;;;;;5126162;27;46604;-79
2022/03/07 05:07:54;;;;;;;4.95;2.60;;;16.60;33.30;;;;;;5114301;27;45190;-78
2022/03/07 05:10:22;;;;;;;3.78;2.47;;;16.60;33.20;;;;;;5129925;27;45213;-78
2022/03/07 05:12:49;;;;;;;2.78;2.20;;;16.60;33.10;;;;;;5111527;27;45789;-78
2022/03/07 05:15:17;;;;;;;3.35;2.33;;;16.60;33.00;;;;;;5111580;27;45380;-78
2022/03/07 05:17:45;;;;;;;2.92;2.13;;;16.60;33.20;;;;;;5123705;27;45364;-77
2022/03/07 05:20:14;;;;;;;5.63;2.70;;;16.50;33.00;;;;;;5122742;27;45113;-78
2022/03/07 05:22:41;;;;;;;4.35;2.45;;;16.40;33.10;;;;;;5129750;27;45181;-78
2022/03/07 05:25:09;;;;;;;2.85;1.85;;;16.40;33.00;;;;;;5111572;27;47157;-78
2022/03/07 05:27:36;;;;;;;3.22;2.42;;;16.40;33.00;;;;;;5110038;27;45175;-78
2022/03/07 05:30:04;;;;;;;2.95;2.20;;;16.40;33.10;;;;;;5125779;27;45195;-78
2022/03/07 05:32:32;;;;;;;4.10;1.95;;;16.40;33.20;;;;;;5115489;27;45211;-78
2022/03/07 05:34:59;;;;;;;3.83;2.00;;;16.40;32.90;;;;;;5128648;27;46175;-78
2022/03/07 05:37:27;;;;;;;3.42;2.20;;;16.40;33.00;;;;;;5114475;27;45123;-77
2022/03/07 05:39:53;;;;;;;2.00;1.80;;;16.40;33.20;;;;;;5129481;27;45741;-77
2022/03/07 05:42:21;;;;;;;4.85;1.88;;;16.40;32.90;;;;;;5112389;27;45323;-78
2022/03/07 05:44:49;;;;;;;4.18;1.83;;;16.50;32.90;;;;;;5105346;27;45254;-78
2022/03/07 05:47:15;;;;;;;2.80;1.70;;;16.50;34.90;;;;;;5110459;27;45171;-78
2022/03/07 05:49:44;;;;;;;3.00;1.58;;;16.50;33.20;;;;;;5115732;27;45176;-78
2022/03/07 05:52:11;;;;;;;2.40;1.70;;;16.50;33.00;;;;;;5125468;27;45400;-77
2022/03/07 05:54:38;;;;;;;3.13;1.70;;;16.40;32.40;;;;;;5107965;27;46205;-78
2022/03/07 05:57:05;;;;;;;3.10;2.20;;;16.40;32.30;;;;;;5125861;27;45178;-79
2022/03/07 05:59:32;;;;;;;3.30;1.65;;;16.40;32.20;;;;;;5126568;27;45373;-79
2022/03/07 06:01:58;;;;;;;3.53;1.80;;;16.30;32.30;;;;;;5150247;27;45258;-79
2022/03/07 06:04:26;;;;;;;2.92;1.55;;;16.30;32.70;;;;;;5127486;27;45223;-79
2022/03/07 06:06:54;;;;;;;3.80;1.90;;;16.30;32.80;;;;;;5112863;27;45482;-78
2022/03/07 06:09:21;;;;;;;3.88;2.10;;;16.30;33.10;;;;;;5110938;27;45390;-79
2022/03/07 06:11:47;;;;;;;2.33;1.52;;;16.30;33.40;;;;;;5129023;27;45197;-78
2022/03/07 06:14:14;;;;;;;4.22;1.95;;;16.40;33.00;;;;;;5121217;27;46188;-77
2022/03/07 06:16:41;;;;;;;2.17;1.75;;;16.40;33.30;;;;;;5115117;27;45720;-77
2022/03/07 06:19:08;;;;;;;3.35;1.70;;;16.40;32.90;;;;;;5123453;27;45524;-77
2022/03/07 06:21:35;;;;;;;5.30;1.70;;;16.40;35.70;;;;;;5125084;27;45100;-77
2022/03/07 06:24:04;;;;;;;2.45;1.45;;;16.40;35.20;;;;;;5114166;27;46443;-77
2022/03/07 06:26:30;;;;;;;2.05;1.40;;;16.40;34.40;;;;;;5113734;27;45252;-77
2022/03/07 06:28:57;;;;;;;6.45;1.50;;;16.40;33.50;;;;;;5120339;27;45203;-77
2022/03/07 06:31:24;;;;;;;2.97;1.52;;;16.40;32.50;;;;;;5115561;27;45209;-76
2022/03/07 06:33:51;;;;;;;3.08;1.75;;;16.40;32.30;;;;;;5128735;27;46352;-77
2022/03/07 06:36:17;;;;;;;2.38;1.33;;;16.30;32.20;;;;;;5119411;27;45295;-77
2022/03/07 06:38:44;;;;;;;2.78;1.75;;;16.30;32.20;;;;;;5120194;27;45321;-77
2022/03/07 06:41:13;;;;;;;1.88;1.42;;;16.30;32.30;;;;;;5124569;27;45585;-77
2022/03/07 06:43:39;;;;;;;2.13;1.10;;;16.30;32.00;;;;;;5131085;27;45232;-77
2022/03/07 06:46:06;;;;;;;4.10;1.60;;;16.30;32.50;;;;;;5126606;27;45600;-78
2022/03/07 06:48:35;;;;;;;2.22;1.30;;;16.30;33.60;;;;;;5120469;27;45280;-78
2022/03/07 06:51:02;;;;;;;1.40;1.20;;;16.30;34.20;;;;;;5120549;27;46716;-78
2022/03/07 06:53:29;;;;;;;2.03;1.10;;;16.30;34.70;;;;;;5127907;27;46527;-78
2022/03/07 06:55:56;;;;;;;2.00;1.20;;;16.40;35.00;;;;;;5125195;27;45506;-78
2022/03/07 06:58:24;;;;;;;2.53;1.23;;;16.40;35.30;;;;;;5125142;27;47440;-78
2022/03/07 07:00:51;;;;;;;1.70;1.40;;;16.40;35.40;;;;;;5129905;27;45540;-78
2022/03/07 07:03:18;;;;;;;1.65;1.15;;;16.40;35.40;;;;;;5127595;27;46387;-78
2022/03/07 07:05:44;;;;;;;1.90;1.10;;;16.50;35.20;;;;;;5116387;27;45642;-78
2022/03/07 07:08:12;;;;;;;1.40;1.30;;;16.50;34.40;;;;;;5113618;27;45372;-78
2022/03/07 07:10:39;;;;;;;2.65;1.17;;;16.50;33.70;;;;;;5142350;27;45104;-78
2022/03/07 07:13:06;;;;;;;2.05;1.30;;;16.50;33.10;;;;;;5123307;27;45469;-78
2022/03/07 07:15:34;;;;;;;2.17;1.40;;;16.50;32.60;;;;;;5121685;27;45151;-78
2022/03/07 07:18:00;;;;;;;2.72;1.20;;;16.50;32.80;;;;;;5125155;27;45307;-78
2022/03/07 07:20:27;;;;;;;1.10;1.00;;;16.50;31.90;;;;;;5114868;27;45346;-78
2022/03/07 07:22:54;;;;;;;1.80;1.15;;;16.50;31.90;;;;;;5125740;27;45993;-78
2022/03/07 07:25:21;;;;;;;1.90;1.08;;;16.50;31.70;;;;;;5125006;27;45383;-78
2022/03/07 07:27:48;;;;;;;2.10;1.15;;;16.50;31.70;;;;;;5118942;27;45330;-78
2022/03/07 07:30:15;;;;;;;1.85;1.23;;;16.50;31.80;;;;;;5117487;27;45317;-79
2022/03/07 07:32:43;;;;;;;2.00;1.23;;;16.50;32.40;;;;;;5120371;27;46906;-79
2022/03/07 07:35:11;;;;;;;2.95;0.80;;;16.50;32.20;;;;;;5129508;27;45421;-78
2022/03/07 07:37:38;;;;;;;2.00;1.00;;;16.50;31.90;;;;;;5118986;27;45317;-78
2022/03/07 07:40:07;;;;;;;1.45;0.98;;;16.50;31.80;;;;;;5125294;27;46355;-77
2022/03/07 07:42:34;;;;;;;1.63;0.90;;;16.50;31.50;;;;;;5120081;27;47027;-77
2022/03/07 07:45:01;;;;;;;1.55;1.00;;;16.50;31.40;;;;;;5124799;27;45491;-77
2022/03/07 07:47:28;;;;;;;1.20;0.90;;;16.50;31.40;;;;;;5120781;27;45249;-77
2022/03/07 07:49:56;;;;;;;1.00;0.80;;;16.50;30.90;;;;;;5128381;27;45485;-78
2022/03/07 07:52:23;;;;;;;1.55;0.90;;;16.60;30.70;;;;;;5128874;27;45266;-78
2022/03/07 07:54:49;;;;;;;1.02;0.90;;;16.60;30.70;;;;;;5128264;27;45428;-78
2022/03/07 07:57:16;;;;;;;1.45;0.77;;;16.60;30.80;;;;;;5116897;27;45305;-78
2022/03/07 07:59:43;;;;;;;3.05;1.05;;;16.60;30.50;;;;;;5117280;27;45249;-78
2022/03/07 08:02:10;;;;;;;2.50;1.13;;;16.60;30.50;;;;;;5120440;27;46471;-78
2022/03/07 08:04:37;;;;;;;1.33;0.95;;;16.60;30.60;;;;;;5118211;27;45194;-78
2022/03/07 08:07:05;;;;;;;2.25;1.10;;;16.60;30.60;;;;;;5126676;27;45271;-78
2022/03/07 08:09:32;;;;;;;1.60;0.93;;;16.60;30.80;;;;;;5122952;27;45407;-78
2022/03/07 08:11:59;;;;;;;1.20;0.80;;;16.50;30.60;;;;;;5119132;27;45447;-78
2022/03/07 08:14:25;;;;;;;2.60;0.90;;;16.60;30.50;;;;;;5129984;27;45242;-78
2022/03/07 08:16:52;;;;;;;1.27;0.90;;;16.60;30.40;;;;;;5122090;27;45218;-78
2022/03/07 08:19:19;;;;;;;0.98;0.68;;;16.60;30.40;;;;;;5117172;27;45335;-78
2022/03/07 08:21:46;;;;;;;0.68;0.52;;;16.50;30.30;;;;;;5131250;27;45508;-78
2022/03/07 08:24:14;;;;;;;1.20;0.88;;;16.50;30.30;;;;;;5114372;27;45460;-78
2022/03/07 08:26:41;;;;;;;0.82;0.60;;;16.60;30.20;;;;;;5121871;27;45139;-80
2022/03/07 08:29:08;;;;;;;1.50;0.80;;;16.50;30.40;;;;;;5128734;27;45308;-78
2022/03/07 08:31:34;;;;;;;1.58;0.70;;;16.50;30.30;;;;;;5114679;27;45366;-78
2022/03/07 08:34:01;;;;;;;1.35;0.73;;;16.60;30.10;;;;;;5106801;27;45531;-78
2022/03/07 08:36:30;;;;;;;0.98;0.73;;;16.60;30.30;;;;;;5114023;27;45466;-77
2022/03/07 08:38:57;;;;;;;0.73;0.63;;;16.60;30.50;;;;;;5110557;27;45624;-78
2022/03/07 08:41:25;;;;;;;1.27;0.70;;;16.60;30.40;;;;;;5118365;27;46186;-78
2022/03/07 08:43:53;;;;;;;0.85;0.70;;;16.60;30.30;;;;;;5109376;27;45196;-78
2022/03/07 08:46:20;;;;;;;1.02;0.80;;;16.60;30.00;;;;;;5111135;27;45225;-78
2022/03/07 08:48:47;;;;;;;0.82;0.70;;;16.60;30.00;;;;;;5113327;27;45294;-78
2022/03/07 08:51:14;;;;;;;0.55;0.55;;;16.60;30.00;;;;;;5112675;27;46453;-78
2022/03/07 08:53:41;;;;;;;0.65;0.55;;;16.60;30.10;;;;;;5109445;27;45456;-78
2022/03/07 08:56:08;;;;;;;2.03;0.60;;;16.50;29.90;;;;;;5128230;27;45550;-77
2022/03/07 08:58:36;;;;;;;0.65;0.57;;;16.50;30.30;;;;;;5126346;27;45183;-77
2022/03/07 09:01:04;;;;;;;1.02;0.70;;;16.50;30.00;;;;;;5121560;27;46471;-77
2022/03/07 09:03:30;;;;;;;2.55;0.80;;;16.50;30.00;;;;;;5123206;27;45092;-77
2022/03/07 09:05:57;;;;;;;0.88;0.63;;;16.50;30.00;;;;;;5127295;27;45199;-78
2022/03/07 09:08:24;;;;;;;0.80;0.80;;;16.50;30.00;;;;;;5123909;27;45222;-78
2022/03/07 09:10:51;;;;;;;1.33;0.90;;;16.50;31.10;;;;;;5123078;27;45195;-77
2022/03/07 09:13:18;;;;;;;1.38;0.50;;;16.50;30.40;;;;;;5129332;27;45214;-78
2022/03/07 09:15:48;;;;;;;3.38;0.90;;;16.50;30.00;;;;;;5125525;27;45237;-78
2022/03/07 09:18:16;;;;;;;1.67;0.60;;;16.60;30.30;;;;;;5121265;27;45198;-78
2022/03/07 09:20:42;;;;;;;1.20;0.90;;;16.60;30.00;;;;;;5126607;27;46190;-78
2022/03/07 09:23:09;;;;;;;1.10;0.70;;;16.60;29.90;;;;;;5109125;27;45232;-78
2022/03/07 09:25:36;;;;;;;0.70;0.60;;;16.60;30.00;;;;;;5114213;27;45352;-78
2022/03/07 09:28:05;;;;;;;1.17;0.98;;;16.60;29.80;;;;;;5126993;27;45305;-77
2022/03/07 09:30:32;;;;;;;2.20;0.80;;;16.70;29.70;;;;;;5112446;27;45733;-78
2022/03/07 09:33:03;;;;;;;1.67;0.77;;;16.60;29.50;;;;;;5139907;27;45172;-78
2022/03/07 09:35:30;;;;;;;0.85;0.60;;;16.60;29.80;;;;;;5137101;27;45347;-77
2022/03/07 09:37:57;;;;;;;0.85;0.65;;;16.60;29.70;;;;;;5111708;27;45447;-78
2022/03/07 09:40:24;;;;;;;0.85;0.70;;;16.60;29.80;;;;;;5106875;27;46228;-78
2022/03/07 09:42:52;;;;;;;1.05;0.63;;;16.60;29.70;;;;;;5122625;27;45239;-78
2022/03/07 09:45:19;;;;;;;0.65;0.50;;;16.60;29.60;;;;;;5119086;27;45183;-78
2022/03/07 09:47:48;;;;;;;0.75;0.63;;;16.60;29.70;;;;;;5125249;27;45517;-77
2022/03/07 09:50:16;;;;;;;1.45;0.68;;;16.60;29.80;;;;;;5112175;27;45346;-78
2022/03/07 09:52:44;;;;;;;1.30;0.70;;;16.60;29.80;;;;;;5108447;27;45316;-78
2022/03/07 09:55:14;;;;;;;0.60;0.60;;;16.60;29.90;;;;;;5125564;27;45284;-78
2022/03/07 09:57:40;;;;;;;1.75;0.63;;;16.60;29.90;;;;;;5120444;27;45451;-78
2022/03/07 10:00:09;;;;;;;0.88;0.60;;;16.60;30.40;;;;;;5123034;27;46189;-77
2022/03/07 10:02:35;;;;;;;0.70;0.70;;;16.70;30.00;;;;;;5113274;27;45212;-78
2022/03/07 10:05:04;;;;;;;2.33;0.60;;;16.70;30.00;;;;;;5116304;27;45250;-78
2022/03/07 10:07:43;;;;;;;1.95;0.60;;;16.60;29.90;;;;;;5128754;27;45239;-78
2022/03/07 10:10:10;;;;;;;1.38;0.50;;;16.60;29.90;;;;;;5120752;27;46295;-77
2022/03/07 10:12:45;;;;;;;0.63;0.63;;;16.60;32.30;;;;;;5133022;27;45473;-78
2022/03/07 10:15:13;;;;;;;0.52;0.52;;;16.70;30.10;;;;;;5125932;27;45307;-77
2022/03/07 10:17:41;;;;;;;0.95;0.68;;;16.60;30.50;;;;;;5125573;27;45345;-78
2022/03/07 10:20:09;;;;;;;0.60;0.60;;;16.60;30.70;;;;;;5131863;27;45453;-78
2022/03/07 10:22:46;;;;;;;1.58;0.73;;;16.60;30.00;;;;;;5134997;27;45347;-78
2022/03/07 10:25:13;;;;;;;1.00;0.77;;;16.60;29.90;;;;;;5123592;27;45250;-78
2022/03/07 10:27:41;;;;;;;0.85;0.60;;;16.60;30.00;;;;;;5129099;27;45755;-78
2022/03/07 10:30:10;;;;;;;1.13;0.70;;;16.60;30.00;;;;;;5117699;27;45469;-78
2022/03/07 10:32:37;;;;;;;1.17;0.88;;;16.60;30.20;;;;;;5131800;27;45305;-78
2022/03/07 10:35:05;;;;;;;1.25;0.75;;;16.60;30.20;;;;;;5122761;27;45642;-78
2022/03/07 10:37:33;;;;;;;0.77;0.70;;;16.60;30.20;;;;;;5133199;27;45277;-78
2022/03/07 10:40:02;;;;;;;1.52;0.70;;;16.70;30.30;;;;;;5118202;27;47364;-78
2022/03/07 10:42:29;;;;;;;0.63;0.45;;;16.70;30.00;;;;;;5142761;27;45174;-78
2022/03/07 10:45:03;;;;;;;0.90;0.75;;;16.70;30.00;;;;;;5148074;27;45779;-78
2022/03/07 10:47:31;;;;;;;0.70;0.63;;;16.70;29.90;;;;;;5116042;27;45430;-78
2022/03/07 10:49:59;;;;;;;0.60;0.60;;;16.60;30.20;;;;;;5114963;27;45751;-78
2022/03/07 10:52:34;;;;;;;1.08;0.68;;;16.70;30.00;;;;;;5133504;27;45261;-78
2022/03/07 10:55:04;;;;;;;0.57;0.57;;;16.60;30.00;;;;;;5132474;27;45302;-78
2022/03/07 10:57:37;;;;;;;1.05;0.65;;;16.60;30.10;;;;;;5121589;27;45563;-78
2022/03/07 11:00:06;;;;;;;2.38;0.50;;;16.60;30.00;;;;;;5121040;27;47384;-78
2022/03/07 11:02:40;;;;;;;0.57;0.57;;;16.60;30.00;;;;;;5124250;27;45290;-78
2022/03/07 11:05:08;;;;;;;0.60;0.60;;;16.60;30.00;;;;;;5118485;27;45242;-78
2022/03/07 11:07:37;;;;;;;0.80;0.52;;;16.60;30.00;;;;;;5125576;27;45281;-78
2022/03/07 11:10:06;;;;;;;1.27;0.80;;;16.60;30.00;;;;;;5124027;27;45981;-78
2022/03/07 11:12:34;;;;;;;1.17;0.50;;;16.60;30.30;;;;;;5132185;27;45314;-77
2022/03/07 11:15:08;;;;;;;1.00;0.63;;;16.60;30.00;;;;;;5126159;27;45331;-78
2022/03/07 11:17:38;;;;;;;1.05;0.50;;;16.70;30.30;;;;;;5118194;27;45251;-78
2022/03/07 11:20:07;;;;;;;0.85;0.70;;;16.70;30.10;;;;;;5123858;27;45317;-78
2022/03/07 11:22:34;;;;;;;1.02;0.70;;;16.70;30.10;;;;;;5130495;27;45312;-78
2022/03/07 11:25:02;;;;;;;0.57;0.57;;;16.70;30.00;;;;;;5108953;27;45287;-78
2022/03/07 11:27:31;;;;;;;0.80;0.63;;;16.70;30.00;;;;;;5113701;27;45293;-78
2022/03/07 11:29:59;;;;;;;0.93;0.70;;;16.70;30.00;;;;;;5110997;27;45509;-78
2022/03/07 11:32:25;;;;;;;1.98;0.90;;;16.70;29.90;;;;;;5121469;27;46891;-78
2022/03/07 11:34:54;;;;;;;0.57;0.50;;;16.70;29.90;;;;;;5112598;27;45269;-78
2022/03/07 11:37:22;;;;;;;0.80;0.60;;;16.70;30.00;;;;;;5121312;27;45291;-78
2022/03/07 11:39:49;;;;;;;0.75;0.50;;;16.70;29.90;;;;;;5130594;27;46499;-78
2022/03/07 11:42:19;;;;;;;0.57;0.57;;;16.70;30.00;;;;;;5119717;27;45213;-78
2022/03/07 11:44:49;;;;;;;1.10;0.68;;;16.70;30.00;;;;;;5117149;27;45172;-78
2022/03/07 11:47:19;;;;;;;1.00;0.60;;;16.70;30.10;;;;;;5113078;27;45189;-78
2022/03/07 11:49:47;;;;;;;0.73;0.63;;;16.70;29.80;;;;;;5120069;27;46513;-78
2022/03/07 11:52:17;;;;;;;0.60;0.60;;;16.70;30.00;;;;;;5128185;27;45357;-78
2022/03/07 11:54:52;;;;;;;0.63;0.52;;;16.70;30.00;;;;;;5129302;27;45525;-78
2022/03/07 11:57:19;;;;;;;0.45;0.43;;;16.70;30.00;;;;;;5130065;27;45141;-78
2022/03/07 11:59:47;;;;;;;0.50;0.50;;;16.70;30.20;;;;;;5124093;27;47848;-78
2022/03/07 12:02:14;;;;;;;1.00;0.68;;;16.70;30.20;;;;;;5114579;27;45197;-78
2022/03/07 12:04:43;;;;;;;1.33;0.70;;;16.70;30.80;;;;;;5119460;27;45584;-77
2022/03/07 12:07:10;;;;;;;1.27;0.65;;;16.70;31.30;;;;;;5124298;27;45377;-78
2022/03/07 12:09:39;;;;;;;1.48;0.75;;;16.70;30.00;;;;;;5127123;27;46174;-78
2022/03/07 12:12:08;;;;;;;0.70;0.50;;;16.80;30.10;;;;;;5124524;27;45228;-78
2022/03/07 12:14:37;;;;;;;0.70;0.50;;;16.70;30.60;;;;;;5124918;27;45389;-78
2022/03/07 12:17:13;;;;;;;1.23;0.50;;;16.70;30.60;;;;;;5124853;27;45235;-78
2022/03/07 12:19:41;;;;;;;0.98;0.50;;;16.70;30.10;;;;;;5120751;27;45752;-78
2022/03/07 12:22:13;;;;;;;0.77;0.60;;;16.70;30.40;;;;;;5122321;27;45303;-78
2022/03/07 12:24:40;;;;;;;0.80;0.70;;;16.60;30.40;;;;;;5119229;27;45305;-78
2022/03/07 12:27:07;;;;;;;0.75;0.50;;;16.60;30.70;;;;;;5110921;27;45218;-78
2022/03/07 12:29:34;;;;;;;0.65;0.50;;;16.60;32.00;;;;;;5119202;27;47443;-78
2022/03/07 12:32:03;;;;;;;0.65;0.60;;;16.60;32.30;;;;;;5115116;27;45213;-78
2022/03/07 12:34:33;;;;;;;0.30;0.30;;;16.60;32.60;;;;;;5126134;27;45269;-78
2022/03/07 12:37:02;;;;;;;0.63;0.60;;;16.60;32.50;;;;;;5125856;27;45290;-78
2022/03/07 12:39:30;;;;;;;1.10;0.50;;;16.60;32.70;;;;;;5112147;27;47341;-78
2022/03/07 12:42:01;;;;;;;1.50;0.40;;;16.70;33.00;;;;;;5125130;27;45202;-78
2022/03/07 12:44:28;;;;;;;0.70;0.60;;;16.70;32.90;;;;;;5128825;27;45408;-78
2022/03/07 12:46:55;;;;;;;1.27;0.50;;;16.70;32.90;;;;;;5112119;27;45519;-78
2022/03/07 12:49:22;;;;;;;0.38;0.38;;;16.70;33.20;;;;;;5120362;27;46088;-78